sensor_id;sensor_type;location;lat;lon;timestamp;P1;durP1;ratioP1;P2;durP2;ratioP2
58643;SDS011;44411;49.994;8.660;2023-06-22T00:02:04;10.18;;;7.57;;
58643;SDS011;44411;49.994;8.660;2023-06-22T00:04:29;9.73;;;7.60;;
58643;SDS011;44411;49.994;8.660;2023-06-22T00:06:54;9.83;;;7.50;;
58643;SDS011;44411;49.994;8.660;2023-06-22T00:09:19;10.17;;;7.63;;
58643;SDS011;44411;49.994;8.660;2023-06-22T00:11:44;10.80;;;7.20;;
58643;SDS011;44411;49.994;8.660;2023-06-22T00:14:10;9.53;;;7.60;;
58643;SDS011;44411;49.994;8.660;2023-06-22T00:16:35;10.10;;;7.50;;
58643;SDS011;44411;49.994;8.660;2023-06-22T00:19:00;10.13;;;6.73;;
58643;SDS011;44411;49.994;8.660;2023-06-22T00:21:27;10.43;;;7.35;;
58643;SDS011;44411;49.994;8.660;2023-06-22T00:23:52;9.35;;;6.72;;
58643;SDS011;44411;49.994;8.660;2023-06-22T00:26:18;10.35;;;7.30;;
58643;SDS011;44411;49.994;8.660;2023-06-22T00:28:43;10.82;;;7.70;;
58643;SDS011;44411;49.994;8.660;2023-06-22T00:31:08;8.57;;;6.97;;
58643;SDS011;44411;49.994;8.660;2023-06-22T00:33:33;10.60;;;6.90;;
58643;SDS011;44411;49.994;8.660;2023-06-22T00:35:58;9.43;;;7.33;;
58643;SDS011;44411;49.994;8.660;2023-06-22T00:38:24;9.50;;;7.23;;
58643;SDS011;44411;49.994;8.660;2023-06-22T00:40:49;8.40;;;6.23;;
58643;SDS011;44411;49.994;8.660;2023-06-22T00:43:14;9.13;;;7.53;;
58643;SDS011;44411;49.994;8.660;2023-06-22T00:45:39;10.27;;;7.57;;
58643;SDS011;44411;49.994;8.660;2023-06-22T00:48:05;12.50;;;7.63;;
58643;SDS011;44411;49.994;8.660;2023-06-22T00:50:31;9.43;;;7.55;;
58643;SDS011;44411;49.994;8.660;2023-06-22T00:55:25;9.85;;;7.55;;
58643;SDS011;44411;49.994;8.660;2023-06-22T00:57:51;9.35;;;7.07;;
58643;SDS011;44411;49.994;8.660;2023-06-22T01:00:22;10.32;;;7.38;;
58643;SDS011;44411;49.994;8.660;2023-06-22T01:02:49;12.70;;;7.60;;
58643;SDS011;44411;49.994;8.660;2023-06-22T01:05:17;10.00;;;7.03;;
58643;SDS011;44411;49.994;8.660;2023-06-22T01:07:51;9.25;;;7.05;;
58643;SDS011;44411;49.994;8.660;2023-06-22T01:12:55;9.73;;;7.47;;
58643;SDS011;44411;49.994;8.660;2023-06-22T01:15:31;9.93;;;7.25;;
58643;SDS011;44411;49.994;8.660;2023-06-22T01:17:58;12.40;;;8.20;;
58643;SDS011;44411;49.994;8.660;2023-06-22T01:20:24;11.18;;;8.65;;
58643;SDS011;44411;49.994;8.660;2023-06-22T01:28:39;11.68;;;8.73;;
58643;SDS011;44411;49.994;8.660;2023-06-22T01:31:07;13.27;;;9.82;;
58643;SDS011;44411;49.994;8.660;2023-06-22T01:33:35;13.68;;;9.52;;
58643;SDS011;44411;49.994;8.660;2023-06-22T01:36:02;15.68;;;9.15;;
58643;SDS011;44411;49.994;8.660;2023-06-22T01:38:28;12.57;;;9.80;;
58643;SDS011;44411;49.994;8.660;2023-06-22T01:40:54;14.70;;;9.30;;
58643;SDS011;44411;49.994;8.660;2023-06-22T01:43:20;12.15;;;9.48;;
58643;SDS011;44411;49.994;8.660;2023-06-22T01:45:48;13.10;;;10.05;;
58643;SDS011;44411;49.994;8.660;2023-06-22T01:48:13;12.73;;;9.07;;
58643;SDS011;44411;49.994;8.660;2023-06-22T01:50:38;12.60;;;10.32;;
58643;SDS011;44411;49.994;8.660;2023-06-22T01:53:03;11.90;;;9.80;;
58643;SDS011;44411;49.994;8.660;2023-06-22T01:55:30;11.55;;;9.50;;
58643;SDS011;44411;49.994;8.660;2023-06-22T01:57:55;11.73;;;8.93;;
58643;SDS011;44411;49.994;8.660;2023-06-22T02:00:21;13.27;;;10.17;;
58643;SDS011;44411;49.994;8.660;2023-06-22T02:02:56;12.60;;;9.77;;
58643;SDS011;44411;49.994;8.660;2023-06-22T02:05:24;13.05;;;10.23;;
58643;SDS011;44411;49.994;8.660;2023-06-22T02:07:56;12.77;;;9.98;;
58643;SDS011;44411;49.994;8.660;2023-06-22T02:10:25;12.48;;;9.38;;
58643;SDS011;44411;49.994;8.660;2023-06-22T02:12:51;14.70;;;9.68;;
58643;SDS011;44411;49.994;8.660;2023-06-22T02:15:17;13.93;;;10.55;;
58643;SDS011;44411;49.994;8.660;2023-06-22T02:17:42;12.27;;;9.82;;
58643;SDS011;44411;49.994;8.660;2023-06-22T02:20:13;13.18;;;9.98;;
58643;SDS011;44411;49.994;8.660;2023-06-22T02:22:38;13.37;;;10.03;;
58643;SDS011;44411;49.994;8.660;2023-06-22T02:25:04;13.43;;;10.52;;
58643;SDS011;44411;49.994;8.660;2023-06-22T02:27:29;13.65;;;10.20;;
58643;SDS011;44411;49.994;8.660;2023-06-22T02:29:54;14.27;;;10.30;;
58643;SDS011;44411;49.994;8.660;2023-06-22T02:32:19;15.00;;;10.83;;
58643;SDS011;44411;49.994;8.660;2023-06-22T02:34:44;12.60;;;10.57;;
58643;SDS011;44411;49.994;8.660;2023-06-22T02:37:13;13.77;;;10.02;;
58643;SDS011;44411;49.994;8.660;2023-06-22T02:39:39;13.18;;;9.85;;
58643;SDS011;44411;49.994;8.660;2023-06-22T02:42:05;12.05;;;10.27;;
58643;SDS011;44411;49.994;8.660;2023-06-22T02:44:30;14.70;;;10.50;;
58643;SDS011;44411;49.994;8.660;2023-06-22T02:46:55;13.37;;;9.40;;
58643;SDS011;44411;49.994;8.660;2023-06-22T02:49:21;12.77;;;10.00;;
58643;SDS011;44411;49.994;8.660;2023-06-22T02:51:46;14.23;;;10.37;;
58643;SDS011;44411;49.994;8.660;2023-06-22T02:54:12;14.65;;;9.82;;
58643;SDS011;44411;49.994;8.660;2023-06-22T02:56:37;13.37;;;9.70;;
58643;SDS011;44411;49.994;8.660;2023-06-22T02:59:02;13.87;;;10.43;;
58643;SDS011;44411;49.994;8.660;2023-06-22T03:01:28;14.38;;;9.75;;
58643;SDS011;44411;49.994;8.660;2023-06-22T03:03:55;11.73;;;9.88;;
58643;SDS011;44411;49.994;8.660;2023-06-22T03:06:20;13.52;;;10.75;;
58643;SDS011;44411;49.994;8.660;2023-06-22T03:08:49;15.60;;;10.73;;
58643;SDS011;44411;49.994;8.660;2023-06-22T03:11:14;13.82;;;11.02;;
58643;SDS011;44411;49.994;8.660;2023-06-22T03:13:39;12.17;;;10.87;;
58643;SDS011;44411;49.994;8.660;2023-06-22T03:16:05;13.67;;;10.70;;
58643;SDS011;44411;49.994;8.660;2023-06-22T03:18:30;13.65;;;10.50;;
58643;SDS011;44411;49.994;8.660;2023-06-22T03:20:55;13.33;;;10.53;;
58643;SDS011;44411;49.994;8.660;2023-06-22T03:23:20;15.03;;;10.30;;
58643;SDS011;44411;49.994;8.660;2023-06-22T03:25:46;15.00;;;11.65;;
58643;SDS011;44411;49.994;8.660;2023-06-22T03:28:11;13.00;;;9.75;;
58643;SDS011;44411;49.994;8.660;2023-06-22T03:30:37;13.57;;;10.43;;
58643;SDS011;44411;49.994;8.660;2023-06-22T03:33:02;13.70;;;11.03;;
58643;SDS011;44411;49.994;8.660;2023-06-22T03:35:27;14.07;;;10.53;;
58643;SDS011;44411;49.994;8.660;2023-06-22T03:37:52;16.38;;;11.27;;
58643;SDS011;44411;49.994;8.660;2023-06-22T03:40:18;13.75;;;11.45;;
58643;SDS011;44411;49.994;8.660;2023-06-22T03:42:43;12.80;;;10.82;;
58643;SDS011;44411;49.994;8.660;2023-06-22T03:45:09;14.03;;;10.83;;
58643;SDS011;44411;49.994;8.660;2023-06-22T03:47:34;14.88;;;11.05;;
58643;SDS011;44411;49.994;8.660;2023-06-22T03:49:59;13.60;;;10.13;;
58643;SDS011;44411;49.994;8.660;2023-06-22T03:52:24;14.40;;;10.52;;
58643;SDS011;44411;49.994;8.660;2023-06-22T03:54:50;15.38;;;10.40;;
58643;SDS011;44411;49.994;8.660;2023-06-22T03:57:15;15.68;;;10.10;;
58643;SDS011;44411;49.994;8.660;2023-06-22T03:59:41;13.43;;;10.47;;
58643;SDS011;44411;49.994;8.660;2023-06-22T04:02:06;12.27;;;10.13;;
58643;SDS011;44411;49.994;8.660;2023-06-22T04:04:31;11.70;;;9.70;;
58643;SDS011;44411;49.994;8.660;2023-06-22T04:06:56;14.77;;;10.47;;
58643;SDS011;44411;49.994;8.660;2023-06-22T04:09:21;12.53;;;9.87;;
58643;SDS011;44411;49.994;8.660;2023-06-22T04:11:47;13.98;;;9.77;;
58643;SDS011;44411;49.994;8.660;2023-06-22T04:14:12;14.02;;;10.02;;
58643;SDS011;44411;49.994;8.660;2023-06-22T04:16:37;11.60;;;9.57;;
58643;SDS011;44411;49.994;8.660;2023-06-22T04:19:03;14.57;;;10.77;;
58643;SDS011;44411;49.994;8.660;2023-06-22T04:21:28;13.95;;;10.88;;
58643;SDS011;44411;49.994;8.660;2023-06-22T04:23:53;13.00;;;9.83;;
58643;SDS011;44411;49.994;8.660;2023-06-22T04:26:18;12.23;;;9.40;;
58643;SDS011;44411;49.994;8.660;2023-06-22T04:28:45;12.18;;;10.25;;
58643;SDS011;44411;49.994;8.660;2023-06-22T04:31:16;13.13;;;9.55;;
58643;SDS011;44411;49.994;8.660;2023-06-22T04:33:41;12.55;;;9.77;;
58643;SDS011;44411;49.994;8.660;2023-06-22T04:36:06;12.47;;;10.13;;
58643;SDS011;44411;49.994;8.660;2023-06-22T04:38:32;17.00;;;10.13;;
58643;SDS011;44411;49.994;8.660;2023-06-22T04:41:00;13.95;;;10.55;;
58643;SDS011;44411;49.994;8.660;2023-06-22T04:43:27;13.88;;;10.50;;
58643;SDS011;44411;49.994;8.660;2023-06-22T04:45:55;12.38;;;9.82;;
58643;SDS011;44411;49.994;8.660;2023-06-22T04:48:21;14.30;;;10.48;;
58643;SDS011;44411;49.994;8.660;2023-06-22T04:50:46;12.97;;;9.67;;
58643;SDS011;44411;49.994;8.660;2023-06-22T04:53:11;15.43;;;10.90;;
58643;SDS011;44411;49.994;8.660;2023-06-22T04:55:37;13.75;;;10.32;;
58643;SDS011;44411;49.994;8.660;2023-06-22T04:58:06;14.17;;;10.83;;
58643;SDS011;44411;49.994;8.660;2023-06-22T05:00:31;11.60;;;9.87;;
58643;SDS011;44411;49.994;8.660;2023-06-22T05:02:56;12.87;;;10.00;;
58643;SDS011;44411;49.994;8.660;2023-06-22T05:05:23;14.57;;;11.18;;
58643;SDS011;44411;49.994;8.660;2023-06-22T05:07:49;12.20;;;10.02;;
58643;SDS011;44411;49.994;8.660;2023-06-22T05:10:15;13.00;;;9.52;;
58643;SDS011;44411;49.994;8.660;2023-06-22T05:12:42;14.25;;;10.65;;
58643;SDS011;44411;49.994;8.660;2023-06-22T05:15:08;12.90;;;11.30;;
58643;SDS011;44411;49.994;8.660;2023-06-22T05:17:33;13.15;;;9.60;;
58643;SDS011;44411;49.994;8.660;2023-06-22T05:19:59;12.43;;;10.45;;
58643;SDS011;44411;49.994;8.660;2023-06-22T05:22:24;13.60;;;10.73;;
58643;SDS011;44411;49.994;8.660;2023-06-22T05:24:49;13.90;;;10.77;;
58643;SDS011;44411;49.994;8.660;2023-06-22T05:27:15;14.67;;;11.33;;
58643;SDS011;44411;49.994;8.660;2023-06-22T05:29:40;12.17;;;9.53;;
58643;SDS011;44411;49.994;8.660;2023-06-22T05:32:05;16.63;;;11.43;;
58643;SDS011;44411;49.994;8.660;2023-06-22T05:34:31;16.38;;;11.55;;
58643;SDS011;44411;49.994;8.660;2023-06-22T05:36:56;13.20;;;10.60;;
58643;SDS011;44411;49.994;8.660;2023-06-22T05:39:23;13.60;;;11.40;;
58643;SDS011;44411;49.994;8.660;2023-06-22T05:41:49;14.07;;;10.48;;
58643;SDS011;44411;49.994;8.660;2023-06-22T05:44:14;13.77;;;10.80;;
58643;SDS011;44411;49.994;8.660;2023-06-22T05:46:40;13.97;;;10.87;;
58643;SDS011;44411;49.994;8.660;2023-06-22T05:49:05;13.85;;;10.18;;
58643;SDS011;44411;49.994;8.660;2023-06-22T05:51:30;14.80;;;10.87;;
58643;SDS011;44411;49.994;8.660;2023-06-22T05:53:56;13.70;;;11.17;;
58643;SDS011;44411;49.994;8.660;2023-06-22T05:56:21;15.30;;;11.20;;
58643;SDS011;44411;49.994;8.660;2023-06-22T05:58:46;12.50;;;10.38;;
58643;SDS011;44411;49.994;8.660;2023-06-22T06:01:12;13.55;;;10.75;;
58643;SDS011;44411;49.994;8.660;2023-06-22T06:03:37;15.40;;;12.05;;
58643;SDS011;44411;49.994;8.660;2023-06-22T06:06:06;18.13;;;12.07;;
58643;SDS011;44411;49.994;8.660;2023-06-22T06:08:31;13.45;;;10.40;;
58643;SDS011;44411;49.994;8.660;2023-06-22T06:10:56;15.03;;;11.43;;
58643;SDS011;44411;49.994;8.660;2023-06-22T06:13:22;13.90;;;10.57;;
58643;SDS011;44411;49.994;8.660;2023-06-22T06:15:47;16.00;;;10.80;;
58643;SDS011;44411;49.994;8.660;2023-06-22T06:18:13;13.77;;;10.97;;
58643;SDS011;44411;49.994;8.660;2023-06-22T06:20:38;13.73;;;10.30;;
58643;SDS011;44411;49.994;8.660;2023-06-22T06:23:03;13.68;;;10.70;;
58643;SDS011;44411;49.994;8.660;2023-06-22T06:25:28;13.63;;;10.25;;
58643;SDS011;44411;49.994;8.660;2023-06-22T06:27:54;13.37;;;10.33;;
58643;SDS011;44411;49.994;8.660;2023-06-22T06:30:19;12.70;;;10.80;;
58643;SDS011;44411;49.994;8.660;2023-06-22T06:32:45;13.30;;;9.43;;
58643;SDS011;44411;49.994;8.660;2023-06-22T06:35:11;14.50;;;10.18;;
58643;SDS011;44411;49.994;8.660;2023-06-22T06:37:37;12.98;;;10.50;;
58643;SDS011;44411;49.994;8.660;2023-06-22T06:40:06;11.27;;;8.65;;
58643;SDS011;44411;49.994;8.660;2023-06-22T06:42:35;13.20;;;9.77;;
58643;SDS011;44411;49.994;8.660;2023-06-22T06:45:00;13.10;;;9.60;;
58643;SDS011;44411;49.994;8.660;2023-06-22T06:47:26;12.67;;;9.30;;
58643;SDS011;44411;49.994;8.660;2023-06-22T06:49:51;13.97;;;9.23;;
58643;SDS011;44411;49.994;8.660;2023-06-22T06:52:16;11.63;;;9.20;;
58643;SDS011;44411;49.994;8.660;2023-06-22T06:54:41;13.70;;;9.93;;
58643;SDS011;44411;49.994;8.660;2023-06-22T06:57:09;10.75;;;8.95;;
58643;SDS011;44411;49.994;8.660;2023-06-22T06:59:38;11.77;;;8.70;;
58643;SDS011;44411;49.994;8.660;2023-06-22T07:02:03;11.90;;;9.07;;
58643;SDS011;44411;49.994;8.660;2023-06-22T07:04:29;11.70;;;9.05;;
58643;SDS011;44411;49.994;8.660;2023-06-22T07:06:54;10.27;;;8.77;;
58643;SDS011;44411;49.994;8.660;2023-06-22T07:09:19;11.57;;;8.77;;
58643;SDS011;44411;49.994;8.660;2023-06-22T07:11:45;11.43;;;8.87;;
58643;SDS011;44411;49.994;8.660;2023-06-22T07:14:10;9.83;;;7.80;;
58643;SDS011;44411;49.994;8.660;2023-06-22T07:16:35;10.27;;;8.83;;
58643;SDS011;44411;49.994;8.660;2023-06-22T07:19:00;12.93;;;9.07;;
58643;SDS011;44411;49.994;8.660;2023-06-22T07:21:25;11.60;;;8.43;;
58643;SDS011;44411;49.994;8.660;2023-06-22T07:23:51;10.00;;;8.47;;
58643;SDS011;44411;49.994;8.660;2023-06-22T07:26:16;11.50;;;8.57;;
58643;SDS011;44411;49.994;8.660;2023-06-22T07:28:41;10.43;;;8.20;;
58643;SDS011;44411;49.994;8.660;2023-06-22T07:31:07;11.60;;;8.97;;
58643;SDS011;44411;49.994;8.660;2023-06-22T07:33:32;9.77;;;7.97;;
58643;SDS011;44411;49.994;8.660;2023-06-22T07:35:57;10.57;;;8.23;;
58643;SDS011;44411;49.994;8.660;2023-06-22T07:38:22;11.70;;;8.70;;
58643;SDS011;44411;49.994;8.660;2023-06-22T07:40:47;10.43;;;8.43;;
58643;SDS011;44411;49.994;8.660;2023-06-22T07:43:13;10.43;;;7.85;;
58643;SDS011;44411;49.994;8.660;2023-06-22T07:45:38;9.50;;;8.40;;
58643;SDS011;44411;49.994;8.660;2023-06-22T07:48:05;9.85;;;8.85;;
58643;SDS011;44411;49.994;8.660;2023-06-22T07:50:30;10.85;;;8.57;;
58643;SDS011;44411;49.994;8.660;2023-06-22T07:52:56;11.32;;;8.60;;
58643;SDS011;44411;49.994;8.660;2023-06-22T07:55:21;10.27;;;8.50;;
58643;SDS011;44411;49.994;8.660;2023-06-22T07:57:47;11.17;;;8.30;;
58643;SDS011;44411;49.994;8.660;2023-06-22T08:00:12;9.80;;;8.00;;
58643;SDS011;44411;49.994;8.660;2023-06-22T08:02:42;11.48;;;9.20;;
58643;SDS011;44411;49.994;8.660;2023-06-22T08:05:08;12.18;;;8.95;;
58643;SDS011;44411;49.994;8.660;2023-06-22T08:07:34;10.60;;;8.40;;
58643;SDS011;44411;49.994;8.660;2023-06-22T08:10:02;10.90;;;8.75;;
58643;SDS011;44411;49.994;8.660;2023-06-22T08:12:28;11.10;;;8.55;;
58643;SDS011;44411;49.994;8.660;2023-06-22T08:14:53;11.93;;;8.57;;
58643;SDS011;44411;49.994;8.660;2023-06-22T08:17:18;11.77;;;8.53;;
58643;SDS011;44411;49.994;8.660;2023-06-22T08:19:43;11.23;;;8.73;;
58643;SDS011;44411;49.994;8.660;2023-06-22T08:22:08;12.77;;;8.80;;
58643;SDS011;44411;49.994;8.660;2023-06-22T08:24:34;10.37;;;7.70;;
58643;SDS011;44411;49.994;8.660;2023-06-22T08:26:59;10.20;;;8.33;;
58643;SDS011;44411;49.994;8.660;2023-06-22T08:29:24;10.73;;;8.27;;
58643;SDS011;44411;49.994;8.660;2023-06-22T08:31:49;10.83;;;9.13;;
58643;SDS011;44411;49.994;8.660;2023-06-22T08:34:14;9.03;;;7.83;;
58643;SDS011;44411;49.994;8.660;2023-06-22T08:36:40;11.03;;;8.90;;
58643;SDS011;44411;49.994;8.660;2023-06-22T08:39:09;9.85;;;7.80;;
58643;SDS011;44411;49.994;8.660;2023-06-22T08:41:35;9.27;;;7.57;;
58643;SDS011;44411;49.994;8.660;2023-06-22T08:44:00;10.97;;;7.87;;
58643;SDS011;44411;49.994;8.660;2023-06-22T08:46:25;10.47;;;7.93;;
58643;SDS011;44411;49.994;8.660;2023-06-22T08:48:55;10.88;;;8.10;;
58643;SDS011;44411;49.994;8.660;2023-06-22T08:51:20;9.98;;;7.55;;
58643;SDS011;44411;49.994;8.660;2023-06-22T08:53:46;10.13;;;7.53;;
58643;SDS011;44411;49.994;8.660;2023-06-22T08:56:11;9.50;;;7.93;;
58643;SDS011;44411;49.994;8.660;2023-06-22T08:58:36;8.85;;;7.70;;
58643;SDS011;44411;49.994;8.660;2023-06-22T09:01:01;8.70;;;7.80;;
58643;SDS011;44411;49.994;8.660;2023-06-22T09:03:27;9.80;;;8.07;;
58643;SDS011;44411;49.994;8.660;2023-06-22T09:05:52;11.13;;;7.37;;
58643;SDS011;44411;49.994;8.660;2023-06-22T09:08:17;8.83;;;7.13;;
58643;SDS011;44411;49.994;8.660;2023-06-22T09:10:42;11.57;;;8.03;;
58643;SDS011;44411;49.994;8.660;2023-06-22T09:13:08;8.23;;;7.03;;
58643;SDS011;44411;49.994;8.660;2023-06-22T09:15:33;9.70;;;8.70;;
58643;SDS011;44411;49.994;8.660;2023-06-22T09:17:59;10.65;;;8.13;;
58643;SDS011;44411;49.994;8.660;2023-06-22T09:20:24;11.07;;;8.13;;
58643;SDS011;44411;49.994;8.660;2023-06-22T09:22:50;9.13;;;7.20;;
58643;SDS011;44411;49.994;8.660;2023-06-22T09:25:15;8.93;;;7.27;;
58643;SDS011;44411;49.994;8.660;2023-06-22T09:27:40;9.73;;;7.68;;
58643;SDS011;44411;49.994;8.660;2023-06-22T09:30:06;9.93;;;8.23;;
58643;SDS011;44411;49.994;8.660;2023-06-22T09:32:31;8.07;;;7.00;;
58643;SDS011;44411;49.994;8.660;2023-06-22T09:34:56;7.90;;;7.10;;
58643;SDS011;44411;49.994;8.660;2023-06-22T09:37:22;8.32;;;6.72;;
58643;SDS011;44411;49.994;8.660;2023-06-22T09:39:47;9.37;;;7.20;;
58643;SDS011;44411;49.994;8.660;2023-06-22T09:42:12;7.65;;;6.50;;
58643;SDS011;44411;49.994;8.660;2023-06-22T09:44:38;8.82;;;7.32;;
58643;SDS011;44411;49.994;8.660;2023-06-22T09:47:03;9.00;;;6.47;;
58643;SDS011;44411;49.994;8.660;2023-06-22T09:49:29;7.60;;;6.10;;
58643;SDS011;44411;49.994;8.660;2023-06-22T09:51:54;8.27;;;6.87;;
58643;SDS011;44411;49.994;8.660;2023-06-22T09:54:19;8.33;;;5.90;;
58643;SDS011;44411;49.994;8.660;2023-06-22T09:56:44;8.57;;;5.43;;
58643;SDS011;44411;49.994;8.660;2023-06-22T09:59:10;7.23;;;5.83;;
58643;SDS011;44411;49.994;8.660;2023-06-22T10:01:35;7.03;;;5.13;;
58643;SDS011;44411;49.994;8.660;2023-06-22T10:04:01;8.10;;;5.20;;
58643;SDS011;44411;49.994;8.660;2023-06-22T10:06:27;9.02;;;6.85;;
58643;SDS011;44411;49.994;8.660;2023-06-22T10:08:52;7.77;;;6.20;;
58643;SDS011;44411;49.994;8.660;2023-06-22T10:11:17;10.43;;;7.00;;
58643;SDS011;44411;49.994;8.660;2023-06-22T10:13:42;8.53;;;6.30;;
58643;SDS011;44411;49.994;8.660;2023-06-22T10:16:08;9.77;;;5.93;;
58643;SDS011;44411;49.994;8.660;2023-06-22T10:18:33;7.30;;;5.63;;
58643;SDS011;44411;49.994;8.660;2023-06-22T10:20:58;6.83;;;5.03;;
58643;SDS011;44411;49.994;8.660;2023-06-22T10:23:23;7.27;;;6.00;;
58643;SDS011;44411;49.994;8.660;2023-06-22T10:25:49;6.77;;;5.50;;
58643;SDS011;44411;49.994;8.660;2023-06-22T10:28:14;7.93;;;5.07;;
58643;SDS011;44411;49.994;8.660;2023-06-22T10:30:40;9.55;;;5.70;;
58643;SDS011;44411;49.994;8.660;2023-06-22T10:33:08;7.35;;;5.72;;
58643;SDS011;44411;49.994;8.660;2023-06-22T10:35:33;7.40;;;5.57;;
58643;SDS011;44411;49.994;8.660;2023-06-22T10:37:58;7.43;;;5.15;;
58643;SDS011;44411;49.994;8.660;2023-06-22T10:40:24;8.73;;;5.80;;
58643;SDS011;44411;49.994;8.660;2023-06-22T10:42:49;6.87;;;5.87;;
58643;SDS011;44411;49.994;8.660;2023-06-22T10:45:15;7.43;;;6.15;;
58643;SDS011;44411;49.994;8.660;2023-06-22T10:47:40;6.95;;;5.57;;
58643;SDS011;44411;49.994;8.660;2023-06-22T10:50:07;7.55;;;5.63;;
58643;SDS011;44411;49.994;8.660;2023-06-22T10:52:32;8.90;;;6.10;;
58643;SDS011;44411;49.994;8.660;2023-06-22T10:54:58;8.23;;;5.70;;
58643;SDS011;44411;49.994;8.660;2023-06-22T10:57:23;7.50;;;5.53;;
58643;SDS011;44411;49.994;8.660;2023-06-22T10:59:48;7.70;;;6.03;;
58643;SDS011;44411;49.994;8.660;2023-06-22T11:02:13;7.07;;;5.93;;
58643;SDS011;44411;49.994;8.660;2023-06-22T11:04:39;8.43;;;6.13;;
58643;SDS011;44411;49.994;8.660;2023-06-22T11:07:04;8.10;;;5.90;;
58643;SDS011;44411;49.994;8.660;2023-06-22T11:09:29;8.05;;;5.40;;
58643;SDS011;44411;49.994;8.660;2023-06-22T11:11:55;9.53;;;6.03;;
58643;SDS011;44411;49.994;8.660;2023-06-22T11:14:20;9.07;;;6.25;;
58643;SDS011;44411;49.994;8.660;2023-06-22T11:16:46;8.38;;;5.47;;
58643;SDS011;44411;49.994;8.660;2023-06-22T11:19:12;9.77;;;5.87;;
58643;SDS011;44411;49.994;8.660;2023-06-22T11:21:37;10.17;;;5.53;;
58643;SDS011;44411;49.994;8.660;2023-06-22T11:24:02;8.53;;;5.43;;
58643;SDS011;44411;49.994;8.660;2023-06-22T11:26:27;8.75;;;5.85;;
58643;SDS011;44411;49.994;8.660;2023-06-22T11:28:53;8.23;;;5.37;;
58643;SDS011;44411;49.994;8.660;2023-06-22T11:31:18;6.97;;;5.60;;
58643;SDS011;44411;49.994;8.660;2023-06-22T11:33:43;8.33;;;5.73;;
58643;SDS011;44411;49.994;8.660;2023-06-22T11:36:10;8.75;;;5.97;;
58643;SDS011;44411;49.994;8.660;2023-06-22T11:38:36;7.80;;;5.40;;
58643;SDS011;44411;49.994;8.660;2023-06-22T11:41:05;8.00;;;5.70;;
58643;SDS011;44411;49.994;8.660;2023-06-22T11:43:30;6.72;;;5.30;;
58643;SDS011;44411;49.994;8.660;2023-06-22T11:45:55;7.50;;;5.47;;
58643;SDS011;44411;49.994;8.660;2023-06-22T11:48:22;8.73;;;6.32;;
58643;SDS011;44411;49.994;8.660;2023-06-22T11:50:48;7.27;;;5.70;;
58643;SDS011;44411;49.994;8.660;2023-06-22T11:53:13;8.87;;;6.90;;
58643;SDS011;44411;49.994;8.660;2023-06-22T11:55:41;9.50;;;6.95;;
58643;SDS011;44411;49.994;8.660;2023-06-22T11:58:06;8.43;;;6.30;;
58643;SDS011;44411;49.994;8.660;2023-06-22T12:00:31;12.30;;;6.50;;
58643;SDS011;44411;49.994;8.660;2023-06-22T12:02:58;9.60;;;6.47;;
58643;SDS011;44411;49.994;8.660;2023-06-22T12:05:23;8.27;;;6.03;;
58643;SDS011;44411;49.994;8.660;2023-06-22T12:07:49;8.00;;;5.82;;
58643;SDS011;44411;49.994;8.660;2023-06-22T12:10:15;8.90;;;6.38;;
58643;SDS011;44411;49.994;8.660;2023-06-22T12:12:40;7.32;;;5.72;;
58643;SDS011;44411;49.994;8.660;2023-06-22T12:15:05;10.15;;;7.70;;
58643;SDS011;44411;49.994;8.660;2023-06-22T12:17:31;8.68;;;6.13;;
58643;SDS011;44411;49.994;8.660;2023-06-22T12:19:56;7.30;;;5.70;;
58643;SDS011;44411;49.994;8.660;2023-06-22T12:22:21;10.77;;;6.73;;
58643;SDS011;44411;49.994;8.660;2023-06-22T12:24:47;8.13;;;6.30;;
58643;SDS011;44411;49.994;8.660;2023-06-22T12:27:12;8.90;;;7.37;;
58643;SDS011;44411;49.994;8.660;2023-06-22T12:29:37;9.10;;;7.07;;
58643;SDS011;44411;49.994;8.660;2023-06-22T12:32:03;9.20;;;6.47;;
58643;SDS011;44411;49.994;8.660;2023-06-22T12:34:28;8.88;;;7.82;;
58643;SDS011;44411;49.994;8.660;2023-06-22T12:36:53;11.20;;;6.60;;
58643;SDS011;44411;49.994;8.660;2023-06-22T12:39:19;10.98;;;6.53;;
58643;SDS011;44411;49.994;8.660;2023-06-22T12:41:44;8.20;;;6.77;;
58643;SDS011;44411;49.994;8.660;2023-06-22T12:44:10;9.60;;;6.53;;
58643;SDS011;44411;49.994;8.660;2023-06-22T12:46:35;8.17;;;6.37;;
58643;SDS011;44411;49.994;8.660;2023-06-22T12:49:02;8.13;;;6.45;;
58643;SDS011;44411;49.994;8.660;2023-06-22T12:51:28;11.48;;;7.35;;
58643;SDS011;44411;49.994;8.660;2023-06-22T12:53:54;8.07;;;6.17;;
58643;SDS011;44411;49.994;8.660;2023-06-22T12:56:19;9.63;;;6.00;;
58643;SDS011;44411;49.994;8.660;2023-06-22T12:58:44;8.97;;;7.00;;
58643;SDS011;44411;49.994;8.660;2023-06-22T13:01:09;8.43;;;6.77;;
58643;SDS011;44411;49.994;8.660;2023-06-22T13:03:35;9.30;;;6.47;;
58643;SDS011;44411;49.994;8.660;2023-06-22T13:06:00;8.90;;;6.77;;
58643;SDS011;44411;49.994;8.660;2023-06-22T13:08:25;8.35;;;6.50;;
58643;SDS011;44411;49.994;8.660;2023-06-22T13:10:50;8.50;;;5.80;;
58643;SDS011;44411;49.994;8.660;2023-06-22T13:13:15;8.37;;;5.83;;
58643;SDS011;44411;49.994;8.660;2023-06-22T13:15:41;8.20;;;5.87;;
58643;SDS011;44411;49.994;8.660;2023-06-22T13:18:06;9.87;;;6.70;;
58643;SDS011;44411;49.994;8.660;2023-06-22T13:20:31;8.63;;;6.10;;
58643;SDS011;44411;49.994;8.660;2023-06-22T13:22:56;11.87;;;6.50;;
58643;SDS011;44411;49.994;8.660;2023-06-22T13:25:22;9.30;;;6.33;;
58643;SDS011;44411;49.994;8.660;2023-06-22T13:27:51;7.80;;;6.15;;
58643;SDS011;44411;49.994;8.660;2023-06-22T13:30:16;9.30;;;6.63;;
58643;SDS011;44411;49.994;8.660;2023-06-22T13:32:41;9.70;;;6.10;;
58643;SDS011;44411;49.994;8.660;2023-06-22T13:35:07;8.27;;;6.15;;
58643;SDS011;44411;49.994;8.660;2023-06-22T13:37:33;12.10;;;7.03;;
58643;SDS011;44411;49.994;8.660;2023-06-22T13:39:58;6.67;;;5.67;;
58643;SDS011;44411;49.994;8.660;2023-06-22T13:42:24;8.38;;;5.85;;
58643;SDS011;44411;49.994;8.660;2023-06-22T13:44:50;7.53;;;5.25;;
58643;SDS011;44411;49.994;8.660;2023-06-22T13:47:15;12.77;;;7.10;;
58643;SDS011;44411;49.994;8.660;2023-06-22T13:49:40;9.57;;;5.80;;
58643;SDS011;44411;49.994;8.660;2023-06-22T13:52:05;8.83;;;5.47;;
58643;SDS011;44411;49.994;8.660;2023-06-22T13:54:35;8.43;;;5.93;;
58643;SDS011;44411;49.994;8.660;2023-06-22T13:57:00;11.23;;;5.80;;
58643;SDS011;44411;49.994;8.660;2023-06-22T13:59:25;7.57;;;5.23;;
58643;SDS011;44411;49.994;8.660;2023-06-22T14:01:52;8.45;;;4.63;;
58643;SDS011;44411;49.994;8.660;2023-06-22T14:04:18;8.77;;;4.83;;
58643;SDS011;44411;49.994;8.660;2023-06-22T14:06:43;12.13;;;4.47;;
58643;SDS011;44411;49.994;8.660;2023-06-22T14:09:08;8.43;;;4.90;;
58643;SDS011;44411;49.994;8.660;2023-06-22T14:11:34;7.68;;;3.85;;
58643;SDS011;44411;49.994;8.660;2023-06-22T14:13:59;8.40;;;4.60;;
58643;SDS011;44411;49.994;8.660;2023-06-22T14:16:24;8.07;;;4.47;;
58643;SDS011;44411;49.994;8.660;2023-06-22T14:18:49;8.40;;;5.23;;
58643;SDS011;44411;49.994;8.660;2023-06-22T14:21:15;10.80;;;4.47;;
58643;SDS011;44411;49.994;8.660;2023-06-22T14:23:40;7.67;;;3.97;;
58643;SDS011;44411;49.994;8.660;2023-06-22T14:26:05;7.57;;;4.23;;
58643;SDS011;44411;49.994;8.660;2023-06-22T14:28:30;8.93;;;4.30;;
58643;SDS011;44411;49.994;8.660;2023-06-22T14:30:56;8.70;;;3.93;;
58643;SDS011;44411;49.994;8.660;2023-06-22T14:33:21;8.35;;;4.22;;
58643;SDS011;44411;49.994;8.660;2023-06-22T14:35:47;6.85;;;3.58;;
58643;SDS011;44411;49.994;8.660;2023-06-22T14:38:12;9.15;;;3.67;;